Main page
METAR-TAF:

METAR-TAF

Airports :

Podgorica, Montenegro

Podgorica Airport

latitude: 42-26N, longitude: 019-17E, elevation: 53 m

Current weather observation

The report was made 49 minutes ago, at 21:30 UTC
Wind 11 kt from the North/Northeast
Temperature 12°C
Humidity 38%
Pressure 1021 hPa
Visibility 10 km or more
no clouds below 1500 m and no cumulonimbus

METAR: LYPG 272130Z 03011KT CAVOK 12/M02 Q1021 NOSIG

Time: 00:19 (22:19 UTC)

Forecast

The report was made 5 hours and 19 minutes ago, at 17:00 UTC
Forecast valid from 27 at 18 UTC to 28 at 18 UTC
Wind 8 kt from the North
Visibility 10 km or more
no clouds below 1500 m and no cumulonimbus
Temporary
from 27 at 18 UTC to 28 at 07 UTC
Wind 18 kt from the North/Northeast

TAF: LYPG 271700Z 2718/2818 36008KT CAVOK TX20/2813Z TN05/2805Z TEMPO 2718/2807 02018KT

Weather observations and forecasts of more than 4000 airports (METAR and TAF reports).

The available stations are represented by yellow and red dots on the map.

Hover mouse over dot to see the name of the station.

Then click to see weather observations and forecasts.

To change the map : click on the green buttons with a black cross to zoom in, on the green button with a dash to zoom out, or on the green arrows for adjacent maps.


METAR-TAF: